map of LHUD home
LHUD - Airport
Location
City:  Szeged, Csongrád, Hungary
Name:Szeged Airport
ICAO:LHUD

Details
Type:Airport (Aerodrome, Airfield)
Latitude:46°14'55"N (46.248596)
Longitude:20°05'26"E (20.090675)
Elevation:259 ft (79 m)
Variation:4.89°E (WMM2015 magnetic declination)
0.11° annual change
Runways:unknown number
Longest:4921 ft (1500 m)

Time
Time Zone:UTC+1 (DST+2)
Local Time:

Weather
METAR:LHUD 221115Z 34002KT 9999 BKN043 14/08 Q1025

Related Locations
Nearby:
Farthest:CHT: 11614 mi / 18691 km
Waitangi [Tuuta], CIT, NZ

Find:

   beyond  
but within

Other Information
Maps:
NOTAMs:
Links:
Sources:

  
  • flag of Hungary
  • flag of Csongrád
  

Sectional Chart

Flight Planning
at skyvector.com

Satellite Image

Google Maps Satellite view

 

Copyright © 2004-2018 Karl L. Swartz. All rights reserved.
The Great Circle Mapper name and logo are trademarks of the Great Circle Mapper.
All other trademarks mentioned herein belong to their respective owners.
Please see credits for attibutions and further copyright information.

  Follow gcmap on Facebook Follow gcmap on Twitter Follow gcmap on Google+ GCmap on LinkedIn

hCard Microformat

Geo Microformat